sensor_id;sensor_type;location;lat;lon;timestamp;P1;durP1;ratioP1;P2;durP2;ratioP2
73697;SDS011;62004;42.566;23.164;2022-10-31T00:00:50;5.13;;;1.77;;
73697;SDS011;62004;42.566;23.164;2022-10-31T00:03:16;3.10;;;1.88;;
73697;SDS011;62004;42.566;23.164;2022-10-31T00:05:50;6.13;;;1.95;;
73697;SDS011;62004;42.566;23.164;2022-10-31T00:08:16;5.40;;;2.40;;
73697;SDS011;62004;42.566;23.164;2022-10-31T00:10:42;6.32;;;2.40;;
73697;SDS011;62004;42.566;23.164;2022-10-31T00:13:08;3.92;;;2.05;;
73697;SDS011;62004;42.566;23.164;2022-10-31T00:15:34;4.70;;;2.35;;
73697;SDS011;62004;42.566;23.164;2022-10-31T00:17:59;4.40;;;2.28;;
73697;SDS011;62004;42.566;23.164;2022-10-31T00:20:24;4.17;;;1.90;;
73697;SDS011;62004;42.566;23.164;2022-10-31T00:22:50;5.67;;;2.40;;
73697;SDS011;62004;42.566;23.164;2022-10-31T00:25:15;3.90;;;2.23;;
73697;SDS011;62004;42.566;23.164;2022-10-31T00:27:40;4.77;;;2.20;;
73697;SDS011;62004;42.566;23.164;2022-10-31T00:30:06;6.13;;;2.47;;
73697;SDS011;62004;42.566;23.164;2022-10-31T00:32:31;4.82;;;2.55;;
73697;SDS011;62004;42.566;23.164;2022-10-31T00:34:56;2.30;;;1.23;;
73697;SDS011;62004;42.566;23.164;2022-10-31T00:37:22;5.80;;;2.27;;
73697;SDS011;62004;42.566;23.164;2022-10-31T00:39:47;6.10;;;2.27;;
73697;SDS011;62004;42.566;23.164;2022-10-31T00:42:14;5.38;;;2.17;;
73697;SDS011;62004;42.566;23.164;2022-10-31T00:44:39;3.65;;;2.08;;
73697;SDS011;62004;42.566;23.164;2022-10-31T00:47:05;4.07;;;1.80;;
73697;SDS011;62004;42.566;23.164;2022-10-31T00:49:30;2.60;;;1.70;;
73697;SDS011;62004;42.566;23.164;2022-10-31T00:51:55;4.17;;;1.97;;
73697;SDS011;62004;42.566;23.164;2022-10-31T00:54:20;8.77;;;1.93;;
73697;SDS011;62004;42.566;23.164;2022-10-31T00:56:46;2.88;;;1.83;;
73697;SDS011;62004;42.566;23.164;2022-10-31T00:59:11;4.13;;;2.23;;
73697;SDS011;62004;42.566;23.164;2022-10-31T01:01:36;4.13;;;1.93;;
73697;SDS011;62004;42.566;23.164;2022-10-31T01:04:01;5.40;;;2.23;;
73697;SDS011;62004;42.566;23.164;2022-10-31T01:06:27;4.03;;;1.77;;
73697;SDS011;62004;42.566;23.164;2022-10-31T01:08:52;5.20;;;1.93;;
73697;SDS011;62004;42.566;23.164;2022-10-31T01:11:19;3.93;;;1.83;;
73697;SDS011;62004;42.566;23.164;2022-10-31T01:13:45;3.38;;;1.90;;
73697;SDS011;62004;42.566;23.164;2022-10-31T01:16:12;3.53;;;2.55;;
73697;SDS011;62004;42.566;23.164;2022-10-31T01:18:37;5.68;;;2.10;;
73697;SDS011;62004;42.566;23.164;2022-10-31T01:21:07;5.30;;;2.33;;
73697;SDS011;62004;42.566;23.164;2022-10-31T01:23:32;5.05;;;2.33;;
73697;SDS011;62004;42.566;23.164;2022-10-31T01:25:58;3.72;;;1.85;;
73697;SDS011;62004;42.566;23.164;2022-10-31T01:28:24;4.22;;;2.03;;
73697;SDS011;62004;42.566;23.164;2022-10-31T01:30:49;4.60;;;2.10;;
73697;SDS011;62004;42.566;23.164;2022-10-31T01:33:14;3.47;;;1.83;;
73697;SDS011;62004;42.566;23.164;2022-10-31T01:35:39;4.10;;;1.97;;
73697;SDS011;62004;42.566;23.164;2022-10-31T01:38:05;5.40;;;1.83;;
73697;SDS011;62004;42.566;23.164;2022-10-31T01:40:30;4.17;;;1.60;;
73697;SDS011;62004;42.566;23.164;2022-10-31T01:42:56;3.67;;;1.85;;
73697;SDS011;62004;42.566;23.164;2022-10-31T01:45:21;3.23;;;1.93;;
73697;SDS011;62004;42.566;23.164;2022-10-31T01:47:46;5.22;;;1.92;;
73697;SDS011;62004;42.566;23.164;2022-10-31T01:50:24;3.65;;;2.17;;
73697;SDS011;62004;42.566;23.164;2022-10-31T01:52:51;4.60;;;1.67;;
73697;SDS011;62004;42.566;23.164;2022-10-31T01:57:43;4.40;;;1.60;;
73697;SDS011;62004;42.566;23.164;2022-10-31T02:00:10;3.30;;;1.92;;
73697;SDS011;62004;42.566;23.164;2022-10-31T02:02:36;3.13;;;2.13;;
73697;SDS011;62004;42.566;23.164;2022-10-31T02:05:02;4.75;;;1.90;;
73697;SDS011;62004;42.566;23.164;2022-10-31T02:07:34;3.67;;;1.80;;
73697;SDS011;62004;42.566;23.164;2022-10-31T02:10:02;5.00;;;1.92;;
73697;SDS011;62004;42.566;23.164;2022-10-31T02:12:27;3.08;;;1.73;;
73697;SDS011;62004;42.566;23.164;2022-10-31T02:14:53;2.83;;;1.85;;
73697;SDS011;62004;42.566;23.164;2022-10-31T02:17:19;2.77;;;1.70;;
73697;SDS011;62004;42.566;23.164;2022-10-31T02:22:41;3.45;;;1.92;;
73697;SDS011;62004;42.566;23.164;2022-10-31T02:25:23;3.47;;;1.95;;
73697;SDS011;62004;42.566;23.164;2022-10-31T02:30:37;5.03;;;2.17;;
73697;SDS011;62004;42.566;23.164;2022-10-31T02:33:11;4.53;;;2.83;;
73697;SDS011;62004;42.566;23.164;2022-10-31T02:38:10;3.80;;;2.10;;
73697;SDS011;62004;42.566;23.164;2022-10-31T02:40:39;6.82;;;2.13;;
73697;SDS011;62004;42.566;23.164;2022-10-31T02:45:51;4.93;;;1.83;;
73697;SDS011;62004;42.566;23.164;2022-10-31T02:48:19;5.25;;;2.53;;
73697;SDS011;62004;42.566;23.164;2022-10-31T02:50:52;4.20;;;2.40;;
73697;SDS011;62004;42.566;23.164;2022-10-31T02:53:20;5.70;;;2.38;;
73697;SDS011;62004;42.566;23.164;2022-10-31T02:56:08;2.95;;;1.92;;
73697;SDS011;62004;42.566;23.164;2022-10-31T02:58:31;4.95;;;2.58;;
73697;SDS011;62004;42.566;23.164;2022-10-31T03:01:10;3.38;;;1.95;;
73697;SDS011;62004;42.566;23.164;2022-10-31T03:03:53;4.30;;;2.03;;
73697;SDS011;62004;42.566;23.164;2022-10-31T03:11:20;5.68;;;2.20;;
73697;SDS011;62004;42.566;23.164;2022-10-31T03:13:51;3.85;;;2.25;;
73697;SDS011;62004;42.566;23.164;2022-10-31T03:16:43;3.55;;;1.98;;
73697;SDS011;62004;42.566;23.164;2022-10-31T03:19:12;3.33;;;1.90;;
73697;SDS011;62004;42.566;23.164;2022-10-31T03:24:12;3.25;;;2.08;;
73697;SDS011;62004;42.566;23.164;2022-10-31T03:26:40;4.15;;;1.95;;
73697;SDS011;62004;42.566;23.164;2022-10-31T03:29:06;3.83;;;1.83;;
73697;SDS011;62004;42.566;23.164;2022-10-31T03:31:36;5.13;;;2.38;;
73697;SDS011;62004;42.566;23.164;2022-10-31T03:34:03;3.80;;;1.65;;
73697;SDS011;62004;42.566;23.164;2022-10-31T03:36:30;4.20;;;2.22;;
73697;SDS011;62004;42.566;23.164;2022-10-31T03:38:58;4.18;;;2.25;;
73697;SDS011;62004;42.566;23.164;2022-10-31T03:41:25;7.30;;;2.25;;
73697;SDS011;62004;42.566;23.164;2022-10-31T03:43:54;4.63;;;2.45;;
73697;SDS011;62004;42.566;23.164;2022-10-31T03:46:21;6.25;;;2.30;;
73697;SDS011;62004;42.566;23.164;2022-10-31T03:48:46;6.22;;;2.92;;
73697;SDS011;62004;42.566;23.164;2022-10-31T03:51:17;4.30;;;2.05;;
73697;SDS011;62004;42.566;23.164;2022-10-31T03:53:45;5.22;;;3.10;;
73697;SDS011;62004;42.566;23.164;2022-10-31T03:56:15;9.65;;;2.92;;
73697;SDS011;62004;42.566;23.164;2022-10-31T03:59:05;4.82;;;2.25;;
73697;SDS011;62004;42.566;23.164;2022-10-31T04:01:31;5.38;;;2.28;;
73697;SDS011;62004;42.566;23.164;2022-10-31T04:03:57;5.45;;;2.35;;
73697;SDS011;62004;42.566;23.164;2022-10-31T04:06:23;7.47;;;2.53;;
73697;SDS011;62004;42.566;23.164;2022-10-31T04:08:51;4.68;;;2.40;;
73697;SDS011;62004;42.566;23.164;2022-10-31T04:11:18;2.90;;;2.30;;
73697;SDS011;62004;42.566;23.164;2022-10-31T04:13:44;6.15;;;2.50;;
73697;SDS011;62004;42.566;23.164;2022-10-31T04:16:11;5.03;;;2.28;;
73697;SDS011;62004;42.566;23.164;2022-10-31T04:18:37;5.85;;;2.70;;
73697;SDS011;62004;42.566;23.164;2022-10-31T04:21:04;9.25;;;2.97;;
73697;SDS011;62004;42.566;23.164;2022-10-31T04:23:30;5.22;;;2.55;;
73697;SDS011;62004;42.566;23.164;2022-10-31T04:25:55;5.05;;;2.70;;
73697;SDS011;62004;42.566;23.164;2022-10-31T04:28:21;3.95;;;2.28;;
73697;SDS011;62004;42.566;23.164;2022-10-31T04:30:46;3.55;;;2.08;;
73697;SDS011;62004;42.566;23.164;2022-10-31T04:33:11;6.17;;;2.70;;
73697;SDS011;62004;42.566;23.164;2022-10-31T04:35:37;5.97;;;2.97;;
73697;SDS011;62004;42.566;23.164;2022-10-31T04:38:02;4.63;;;3.03;;
73697;SDS011;62004;42.566;23.164;2022-10-31T04:40:27;4.20;;;2.70;;
73697;SDS011;62004;42.566;23.164;2022-10-31T04:42:52;7.35;;;2.45;;
73697;SDS011;62004;42.566;23.164;2022-10-31T04:45:18;10.47;;;3.53;;
73697;SDS011;62004;42.566;23.164;2022-10-31T04:47:43;7.90;;;3.03;;
73697;SDS011;62004;42.566;23.164;2022-10-31T04:50:08;7.07;;;3.23;;
73697;SDS011;62004;42.566;23.164;2022-10-31T04:52:38;5.60;;;3.27;;
73697;SDS011;62004;42.566;23.164;2022-10-31T04:55:03;6.53;;;2.53;;
73697;SDS011;62004;42.566;23.164;2022-10-31T04:57:29;7.65;;;2.55;;
73697;SDS011;62004;42.566;23.164;2022-10-31T04:59:54;7.73;;;3.07;;
73697;SDS011;62004;42.566;23.164;2022-10-31T05:02:19;6.00;;;2.47;;
73697;SDS011;62004;42.566;23.164;2022-10-31T05:04:44;5.33;;;2.60;;
73697;SDS011;62004;42.566;23.164;2022-10-31T05:07:10;3.50;;;2.67;;
73697;SDS011;62004;42.566;23.164;2022-10-31T05:09:35;10.20;;;3.97;;
73697;SDS011;62004;42.566;23.164;2022-10-31T05:12:00;10.00;;;3.50;;
73697;SDS011;62004;42.566;23.164;2022-10-31T05:14:25;7.50;;;2.87;;
73697;SDS011;62004;42.566;23.164;2022-10-31T05:16:51;4.80;;;2.10;;
73697;SDS011;62004;42.566;23.164;2022-10-31T05:19:16;5.50;;;2.47;;
73697;SDS011;62004;42.566;23.164;2022-10-31T05:21:41;5.93;;;2.70;;
73697;SDS011;62004;42.566;23.164;2022-10-31T05:24:07;6.20;;;2.97;;
73697;SDS011;62004;42.566;23.164;2022-10-31T05:26:32;7.43;;;2.60;;
73697;SDS011;62004;42.566;23.164;2022-10-31T05:28:57;7.60;;;3.08;;
73697;SDS011;62004;42.566;23.164;2022-10-31T05:31:22;5.85;;;2.60;;
73697;SDS011;62004;42.566;23.164;2022-10-31T05:33:48;5.63;;;2.78;;
73697;SDS011;62004;42.566;23.164;2022-10-31T05:36:13;5.97;;;2.60;;
73697;SDS011;62004;42.566;23.164;2022-10-31T05:38:38;7.53;;;2.25;;
73697;SDS011;62004;42.566;23.164;2022-10-31T05:41:04;5.47;;;2.58;;
73697;SDS011;62004;42.566;23.164;2022-10-31T05:43:29;7.40;;;2.58;;
73697;SDS011;62004;42.566;23.164;2022-10-31T05:45:55;4.55;;;2.67;;
73697;SDS011;62004;42.566;23.164;2022-10-31T05:48:20;4.78;;;2.53;;
73697;SDS011;62004;42.566;23.164;2022-10-31T05:50:46;5.80;;;3.00;;
73697;SDS011;62004;42.566;23.164;2022-10-31T05:53:13;4.70;;;2.97;;
73697;SDS011;62004;42.566;23.164;2022-10-31T05:55:39;5.07;;;3.15;;
73697;SDS011;62004;42.566;23.164;2022-10-31T05:58:05;4.55;;;2.80;;
73697;SDS011;62004;42.566;23.164;2022-10-31T06:00:31;5.70;;;3.88;;
73697;SDS011;62004;42.566;23.164;2022-10-31T06:02:57;6.45;;;3.40;;
73697;SDS011;62004;42.566;23.164;2022-10-31T06:05:23;5.90;;;2.70;;
73697;SDS011;62004;42.566;23.164;2022-10-31T06:07:48;5.97;;;2.88;;
73697;SDS011;62004;42.566;23.164;2022-10-31T06:10:13;8.10;;;2.67;;
73697;SDS011;62004;42.566;23.164;2022-10-31T06:12:39;4.03;;;2.88;;
73697;SDS011;62004;42.566;23.164;2022-10-31T06:15:06;6.35;;;3.08;;
73697;SDS011;62004;42.566;23.164;2022-10-31T06:17:32;10.23;;;3.05;;
73697;SDS011;62004;42.566;23.164;2022-10-31T06:19:57;5.13;;;3.25;;
73697;SDS011;62004;42.566;23.164;2022-10-31T06:22:22;7.22;;;3.67;;
73697;SDS011;62004;42.566;23.164;2022-10-31T06:24:47;7.93;;;3.50;;
73697;SDS011;62004;42.566;23.164;2022-10-31T06:27:13;4.73;;;3.23;;
73697;SDS011;62004;42.566;23.164;2022-10-31T06:29:38;5.30;;;3.40;;
73697;SDS011;62004;42.566;23.164;2022-10-31T06:32:03;6.05;;;3.85;;
73697;SDS011;62004;42.566;23.164;2022-10-31T06:34:29;7.78;;;3.38;;
73697;SDS011;62004;42.566;23.164;2022-10-31T06:36:54;6.35;;;4.47;;
73697;SDS011;62004;42.566;23.164;2022-10-31T06:39:19;8.70;;;4.60;;
73697;SDS011;62004;42.566;23.164;2022-10-31T06:41:46;7.03;;;5.07;;
73697;SDS011;62004;42.566;23.164;2022-10-31T06:44:12;6.95;;;4.50;;
73697;SDS011;62004;42.566;23.164;2022-10-31T06:46:37;9.70;;;4.53;;
73697;SDS011;62004;42.566;23.164;2022-10-31T06:49:02;9.83;;;4.30;;
73697;SDS011;62004;42.566;23.164;2022-10-31T06:51:28;6.15;;;3.78;;
73697;SDS011;62004;42.566;23.164;2022-10-31T06:53:53;6.63;;;4.37;;
73697;SDS011;62004;42.566;23.164;2022-10-31T06:56:19;8.57;;;3.90;;
73697;SDS011;62004;42.566;23.164;2022-10-31T06:58:44;7.38;;;4.03;;
73697;SDS011;62004;42.566;23.164;2022-10-31T07:01:09;11.17;;;4.53;;
73697;SDS011;62004;42.566;23.164;2022-10-31T07:03:35;8.23;;;4.23;;
73697;SDS011;62004;42.566;23.164;2022-10-31T07:06:00;6.60;;;3.93;;
73697;SDS011;62004;42.566;23.164;2022-10-31T07:08:25;9.97;;;4.27;;
73697;SDS011;62004;42.566;23.164;2022-10-31T07:10:55;8.27;;;4.20;;
73697;SDS011;62004;42.566;23.164;2022-10-31T07:13:20;7.03;;;4.30;;
73697;SDS011;62004;42.566;23.164;2022-10-31T07:15:50;6.03;;;4.28;;
73697;SDS011;62004;42.566;23.164;2022-10-31T07:18:15;8.05;;;6.95;;
73697;SDS011;62004;42.566;23.164;2022-10-31T07:20:41;23.77;;;22.23;;
73697;SDS011;62004;42.566;23.164;2022-10-31T07:23:07;18.88;;;17.50;;
73697;SDS011;62004;42.566;23.164;2022-10-31T07:25:32;11.82;;;10.63;;
73697;SDS011;62004;42.566;23.164;2022-10-31T07:27:58;10.45;;;9.75;;
73697;SDS011;62004;42.566;23.164;2022-10-31T07:30:23;5.57;;;4.57;;
73697;SDS011;62004;42.566;23.164;2022-10-31T07:32:49;8.50;;;5.47;;
73697;SDS011;62004;42.566;23.164;2022-10-31T07:35:18;8.75;;;6.85;;
73697;SDS011;62004;42.566;23.164;2022-10-31T07:37:43;12.00;;;5.75;;
73697;SDS011;62004;42.566;23.164;2022-10-31T07:40:09;7.68;;;4.55;;
73697;SDS011;62004;42.566;23.164;2022-10-31T07:42:38;7.55;;;4.55;;
73697;SDS011;62004;42.566;23.164;2022-10-31T07:45:04;7.32;;;4.47;;
73697;SDS011;62004;42.566;23.164;2022-10-31T07:47:29;8.50;;;4.90;;
73697;SDS011;62004;42.566;23.164;2022-10-31T07:49:55;11.05;;;4.75;;
73697;SDS011;62004;42.566;23.164;2022-10-31T07:52:20;11.23;;;5.00;;
73697;SDS011;62004;42.566;23.164;2022-10-31T07:54:45;7.50;;;3.77;;
73697;SDS011;62004;42.566;23.164;2022-10-31T07:57:11;8.77;;;4.70;;
73697;SDS011;62004;42.566;23.164;2022-10-31T07:59:36;9.33;;;4.83;;
73697;SDS011;62004;42.566;23.164;2022-10-31T08:02:03;6.65;;;4.18;;
73697;SDS011;62004;42.566;23.164;2022-10-31T08:04:29;8.83;;;5.27;;
73697;SDS011;62004;42.566;23.164;2022-10-31T08:06:54;11.43;;;6.65;;
73697;SDS011;62004;42.566;23.164;2022-10-31T08:09:20;9.47;;;4.40;;
73697;SDS011;62004;42.566;23.164;2022-10-31T08:11:45;7.40;;;4.33;;
73697;SDS011;62004;42.566;23.164;2022-10-31T08:14:10;7.00;;;4.37;;
73697;SDS011;62004;42.566;23.164;2022-10-31T08:16:35;6.13;;;4.17;;
73697;SDS011;62004;42.566;23.164;2022-10-31T08:19:01;6.73;;;3.90;;
73697;SDS011;62004;42.566;23.164;2022-10-31T08:21:26;6.90;;;4.15;;
73697;SDS011;62004;42.566;23.164;2022-10-31T08:23:51;6.93;;;3.83;;
73697;SDS011;62004;42.566;23.164;2022-10-31T08:26:16;9.00;;;4.40;;
73697;SDS011;62004;42.566;23.164;2022-10-31T08:28:42;10.60;;;4.53;;
73697;SDS011;62004;42.566;23.164;2022-10-31T08:31:07;7.67;;;4.23;;
73697;SDS011;62004;42.566;23.164;2022-10-31T08:33:32;13.35;;;4.68;;
73697;SDS011;62004;42.566;23.164;2022-10-31T08:35:58;10.30;;;5.10;;
73697;SDS011;62004;42.566;23.164;2022-10-31T08:38:23;10.68;;;3.95;;
73697;SDS011;62004;42.566;23.164;2022-10-31T08:40:49;9.95;;;4.43;;
73697;SDS011;62004;42.566;23.164;2022-10-31T08:43:15;8.07;;;4.15;;
73697;SDS011;62004;42.566;23.164;2022-10-31T08:45:41;6.22;;;3.78;;
73697;SDS011;62004;42.566;23.164;2022-10-31T08:48:09;8.20;;;4.75;;
73697;SDS011;62004;42.566;23.164;2022-10-31T08:50:34;7.38;;;4.10;;
73697;SDS011;62004;42.566;23.164;2022-10-31T08:53:04;4.88;;;2.83;;
73697;SDS011;62004;42.566;23.164;2022-10-31T08:55:29;8.05;;;3.63;;
73697;SDS011;62004;42.566;23.164;2022-10-31T08:57:55;6.70;;;3.10;;
73697;SDS011;62004;42.566;23.164;2022-10-31T09:00:21;11.32;;;3.75;;
73697;SDS011;62004;42.566;23.164;2022-10-31T09:02:46;7.70;;;3.87;;
73697;SDS011;62004;42.566;23.164;2022-10-31T09:05:11;16.92;;;4.07;;
73697;SDS011;62004;42.566;23.164;2022-10-31T09:07:37;5.28;;;3.80;;
73697;SDS011;62004;42.566;23.164;2022-10-31T09:10:02;9.87;;;3.67;;
73697;SDS011;62004;42.566;23.164;2022-10-31T09:12:27;6.47;;;2.67;;
73697;SDS011;62004;42.566;23.164;2022-10-31T09:14:52;9.37;;;3.13;;
73697;SDS011;62004;42.566;23.164;2022-10-31T09:17:18;5.68;;;2.85;;
73697;SDS011;62004;42.566;23.164;2022-10-31T09:19:43;3.53;;;2.25;;
73697;SDS011;62004;42.566;23.164;2022-10-31T09:22:08;5.30;;;2.38;;
73697;SDS011;62004;42.566;23.164;2022-10-31T09:24:34;7.87;;;2.13;;
73697;SDS011;62004;42.566;23.164;2022-10-31T09:26:59;5.90;;;2.73;;
73697;SDS011;62004;42.566;23.164;2022-10-31T09:29:24;6.20;;;2.47;;
73697;SDS011;62004;42.566;23.164;2022-10-31T09:31:49;3.80;;;2.70;;
73697;SDS011;62004;42.566;23.164;2022-10-31T09:34:15;5.93;;;2.57;;
73697;SDS011;62004;42.566;23.164;2022-10-31T09:36:40;6.63;;;2.63;;
73697;SDS011;62004;42.566;23.164;2022-10-31T09:39:05;5.37;;;2.60;;
73697;SDS011;62004;42.566;23.164;2022-10-31T09:44:44;5.78;;;2.05;;
73697;SDS011;62004;42.566;23.164;2022-10-31T09:47:14;6.22;;;1.85;;
73697;SDS011;62004;42.566;23.164;2022-10-31T09:52:24;3.17;;;1.67;;
73697;SDS011;62004;42.566;23.164;2022-10-31T09:54:57;6.68;;;1.77;;
73697;SDS011;62004;42.566;23.164;2022-10-31T09:57:44;6.13;;;1.60;;
73697;SDS011;62004;42.566;23.164;2022-10-31T10:00:16;5.22;;;1.92;;
73697;SDS011;62004;42.566;23.164;2022-10-31T10:02:44;3.90;;;1.63;;
73697;SDS011;62004;42.566;23.164;2022-10-31T10:05:12;4.63;;;1.90;;
73697;SDS011;62004;42.566;23.164;2022-10-31T10:10:15;5.70;;;1.77;;
73697;SDS011;62004;42.566;23.164;2022-10-31T10:18:14;4.63;;;2.15;;
73697;SDS011;62004;42.566;23.164;2022-10-31T10:20:56;11.00;;;3.55;;
73697;SDS011;62004;42.566;23.164;2022-10-31T10:25:52;7.53;;;3.03;;
73697;SDS011;62004;42.566;23.164;2022-10-31T10:28:22;5.00;;;2.92;;
73697;SDS011;62004;42.566;23.164;2022-10-31T10:31:23;7.68;;;2.40;;
73697;SDS011;62004;42.566;23.164;2022-10-31T10:36:50;3.90;;;1.90;;
73697;SDS011;62004;42.566;23.164;2022-10-31T10:41:46;4.70;;;1.85;;
73697;SDS011;62004;42.566;23.164;2022-10-31T10:44:12;5.05;;;1.73;;
73697;SDS011;62004;42.566;23.164;2022-10-31T10:46:41;23.70;;;4.45;;
73697;SDS011;62004;42.566;23.164;2022-10-31T10:59:42;11.88;;;2.70;;
73697;SDS011;62004;42.566;23.164;2022-10-31T11:02:22;3.80;;;1.63;;
73697;SDS011;62004;42.566;23.164;2022-10-31T11:04:49;18.23;;;3.33;;
73697;SDS011;62004;42.566;23.164;2022-10-31T11:07:15;4.97;;;1.33;;
73697;SDS011;62004;42.566;23.164;2022-10-31T11:09:41;6.87;;;2.13;;
73697;SDS011;62004;42.566;23.164;2022-10-31T11:12:24;7.10;;;1.80;;
73697;SDS011;62004;42.566;23.164;2022-10-31T11:14:53;5.97;;;1.98;;
73697;SDS011;62004;42.566;23.164;2022-10-31T11:17:42;5.38;;;2.10;;
73697;SDS011;62004;42.566;23.164;2022-10-31T11:22:37;11.52;;;3.10;;
73697;SDS011;62004;42.566;23.164;2022-10-31T11:25:22;5.30;;;1.45;;
73697;SDS011;62004;42.566;23.164;2022-10-31T11:27:57;6.47;;;1.40;;
73697;SDS011;62004;42.566;23.164;2022-10-31T11:32:49;4.65;;;1.83;;
73697;SDS011;62004;42.566;23.164;2022-10-31T11:35:17;5.43;;;1.52;;
73697;SDS011;62004;42.566;23.164;2022-10-31T11:37:44;5.70;;;1.63;;
73697;SDS011;62004;42.566;23.164;2022-10-31T11:40:20;5.22;;;1.38;;
73697;SDS011;62004;42.566;23.164;2022-10-31T11:42:46;7.75;;;2.22;;
73697;SDS011;62004;42.566;23.164;2022-10-31T11:45:28;5.88;;;1.75;;
73697;SDS011;62004;42.566;23.164;2022-10-31T11:47:55;8.20;;;1.73;;
73697;SDS011;62004;42.566;23.164;2022-10-31T11:50:40;9.02;;;1.90;;
73697;SDS011;62004;42.566;23.164;2022-10-31T11:53:25;15.55;;;2.47;;
73697;SDS011;62004;42.566;23.164;2022-10-31T11:56:05;30.13;;;4.43;;
73697;SDS011;62004;42.566;23.164;2022-10-31T11:58:31;23.23;;;3.65;;
73697;SDS011;62004;42.566;23.164;2022-10-31T12:00:57;28.25;;;3.55;;
73697;SDS011;62004;42.566;23.164;2022-10-31T12:08:15;78.35;;;8.65;;
73697;SDS011;62004;42.566;23.164;2022-10-31T12:13:19;5.15;;;2.33;;
73697;SDS011;62004;42.566;23.164;2022-10-31T12:15:54;7.15;;;2.17;;
73697;SDS011;62004;42.566;23.164;2022-10-31T12:36:15;16.63;;;3.13;;
73697;SDS011;62004;42.566;23.164;2022-10-31T12:46:07;7.93;;;2.27;;
73697;SDS011;62004;42.566;23.164;2022-10-31T12:54:10;7.65;;;2.22;;
73697;SDS011;62004;42.566;23.164;2022-10-31T12:59:10;20.70;;;3.78;;
73697;SDS011;62004;42.566;23.164;2022-10-31T13:01:55;12.35;;;3.08;;
73697;SDS011;62004;42.566;23.164;2022-10-31T13:06:56;10.57;;;4.10;;
73697;SDS011;62004;42.566;23.164;2022-10-31T13:12:10;7.40;;;2.95;;
73697;SDS011;62004;42.566;23.164;2022-10-31T13:14:38;16.95;;;3.28;;
73697;SDS011;62004;42.566;23.164;2022-10-31T13:17:05;11.20;;;3.22;;
73697;SDS011;62004;42.566;23.164;2022-10-31T13:22:16;8.75;;;3.30;;
73697;SDS011;62004;42.566;23.164;2022-10-31T13:24:57;5.18;;;2.80;;
73697;SDS011;62004;42.566;23.164;2022-10-31T13:27:23;5.20;;;2.83;;
73697;SDS011;62004;42.566;23.164;2022-10-31T13:32:14;21.80;;;4.10;;
73697;SDS011;62004;42.566;23.164;2022-10-31T13:34:42;32.03;;;5.65;;
73697;SDS011;62004;42.566;23.164;2022-10-31T13:42:29;8.40;;;2.83;;
73697;SDS011;62004;42.566;23.164;2022-10-31T13:45:06;37.75;;;5.18;;
73697;SDS011;62004;42.566;23.164;2022-10-31T13:47:31;26.30;;;4.07;;
73697;SDS011;62004;42.566;23.164;2022-10-31T13:50:04;18.37;;;3.80;;
73697;SDS011;62004;42.566;23.164;2022-10-31T13:52:29;15.82;;;4.30;;
73697;SDS011;62004;42.566;23.164;2022-10-31T13:54:54;8.20;;;3.03;;
73697;SDS011;62004;42.566;23.164;2022-10-31T13:59:54;9.10;;;2.90;;
73697;SDS011;62004;42.566;23.164;2022-10-31T14:02:25;6.97;;;2.72;;
73697;SDS011;62004;42.566;23.164;2022-10-31T14:04:52;6.35;;;2.42;;
73697;SDS011;62004;42.566;23.164;2022-10-31T14:07:20;7.13;;;2.78;;
73697;SDS011;62004;42.566;23.164;2022-10-31T14:12:22;35.78;;;5.07;;
73697;SDS011;62004;42.566;23.164;2022-10-31T14:14:49;26.23;;;4.05;;
73697;SDS011;62004;42.566;23.164;2022-10-31T14:17:20;43.05;;;5.13;;
73697;SDS011;62004;42.566;23.164;2022-10-31T14:22:44;21.70;;;5.10;;
73697;SDS011;62004;42.566;23.164;2022-10-31T14:25:29;10.20;;;3.58;;
73697;SDS011;62004;42.566;23.164;2022-10-31T14:27:55;7.38;;;2.95;;
73697;SDS011;62004;42.566;23.164;2022-10-31T14:30:24;5.82;;;2.30;;
73697;SDS011;62004;42.566;23.164;2022-10-31T14:33:00;9.48;;;2.72;;
73697;SDS011;62004;42.566;23.164;2022-10-31T14:36:28;5.10;;;2.83;;
73697;SDS011;62004;42.566;23.164;2022-10-31T14:38:30;7.40;;;2.92;;
73697;SDS011;62004;42.566;23.164;2022-10-31T14:41:14;4.68;;;2.03;;
73697;SDS011;62004;42.566;23.164;2022-10-31T14:51:19;6.88;;;2.33;;
73697;SDS011;62004;42.566;23.164;2022-10-31T14:54:04;8.10;;;2.60;;
73697;SDS011;62004;42.566;23.164;2022-10-31T14:56:31;14.20;;;4.65;;
73697;SDS011;62004;42.566;23.164;2022-10-31T14:58:57;12.07;;;5.15;;
73697;SDS011;62004;42.566;23.164;2022-10-31T15:01:26;7.53;;;3.17;;
73697;SDS011;62004;42.566;23.164;2022-10-31T15:03:53;9.07;;;2.75;;
73697;SDS011;62004;42.566;23.164;2022-10-31T15:06:20;10.73;;;3.15;;
73697;SDS011;62004;42.566;23.164;2022-10-31T15:08:47;10.20;;;2.65;;
73697;SDS011;62004;42.566;23.164;2022-10-31T15:11:16;9.63;;;2.90;;
73697;SDS011;62004;42.566;23.164;2022-10-31T15:13:48;10.07;;;3.53;;
73697;SDS011;62004;42.566;23.164;2022-10-31T15:16:18;11.13;;;3.10;;
73697;SDS011;62004;42.566;23.164;2022-10-31T15:18:48;10.90;;;2.95;;
73697;SDS011;62004;42.566;23.164;2022-10-31T15:21:15;10.23;;;2.80;;
73697;SDS011;62004;42.566;23.164;2022-10-31T15:23:42;10.80;;;2.42;;
73697;SDS011;62004;42.566;23.164;2022-10-31T15:26:11;9.57;;;2.50;;
73697;SDS011;62004;42.566;23.164;2022-10-31T15:28:39;6.20;;;2.97;;
73697;SDS011;62004;42.566;23.164;2022-10-31T15:31:04;9.17;;;2.57;;
73697;SDS011;62004;42.566;23.164;2022-10-31T15:33:39;15.82;;;5.65;;
73697;SDS011;62004;42.566;23.164;2022-10-31T15:36:05;24.05;;;8.43;;
73697;SDS011;62004;42.566;23.164;2022-10-31T15:38:30;12.50;;;5.13;;
73697;SDS011;62004;42.566;23.164;2022-10-31T15:41:01;10.50;;;5.10;;
73697;SDS011;62004;42.566;23.164;2022-10-31T15:43:30;9.80;;;3.83;;
73697;SDS011;62004;42.566;23.164;2022-10-31T15:48:23;18.30;;;7.22;;
73697;SDS011;62004;42.566;23.164;2022-10-31T15:50:53;16.73;;;6.82;;
73697;SDS011;62004;42.566;23.164;2022-10-31T15:53:21;20.88;;;8.02;;
73697;SDS011;62004;42.566;23.164;2022-10-31T15:55:54;25.95;;;9.35;;
73697;SDS011;62004;42.566;23.164;2022-10-31T15:58:20;27.65;;;10.57;;
73697;SDS011;62004;42.566;23.164;2022-10-31T16:00:55;17.10;;;6.18;;
73697;SDS011;62004;42.566;23.164;2022-10-31T16:05:48;14.77;;;6.27;;
73697;SDS011;62004;42.566;23.164;2022-10-31T16:10:57;12.50;;;5.55;;
73697;SDS011;62004;42.566;23.164;2022-10-31T16:13:25;10.70;;;5.65;;
73697;SDS011;62004;42.566;23.164;2022-10-31T16:15:52;13.02;;;5.90;;
73697;SDS011;62004;42.566;23.164;2022-10-31T16:18:19;13.05;;;5.20;;
73697;SDS011;62004;42.566;23.164;2022-10-31T16:20:51;11.75;;;5.00;;
73697;SDS011;62004;42.566;23.164;2022-10-31T16:23:18;12.00;;;4.93;;
73697;SDS011;62004;42.566;23.164;2022-10-31T16:25:44;10.77;;;4.90;;
73697;SDS011;62004;42.566;23.164;2022-10-31T16:28:16;11.38;;;4.53;;
73697;SDS011;62004;42.566;23.164;2022-10-31T16:30:43;9.65;;;4.18;;
73697;SDS011;62004;42.566;23.164;2022-10-31T16:33:26;9.35;;;3.90;;
73697;SDS011;62004;42.566;23.164;2022-10-31T16:35:52;10.52;;;3.47;;
73697;SDS011;62004;42.566;23.164;2022-10-31T16:38:17;10.02;;;3.45;;
73697;SDS011;62004;42.566;23.164;2022-10-31T16:40:43;10.02;;;3.35;;
73697;SDS011;62004;42.566;23.164;2022-10-31T16:43:10;8.15;;;3.13;;
73697;SDS011;62004;42.566;23.164;2022-10-31T16:45:36;7.30;;;2.97;;
73697;SDS011;62004;42.566;23.164;2022-10-31T16:48:05;6.93;;;3.00;;
73697;SDS011;62004;42.566;23.164;2022-10-31T16:50:31;8.93;;;2.80;;
73697;SDS011;62004;42.566;23.164;2022-10-31T16:52:57;7.78;;;3.55;;